KMKC/MKC METAR and TAF weather

Enter ICAO airport designator
Station Type Date Time Source
KMKC METAR 2022/06/25 22:54 UTC NOAA

KMKC 252254Z 31008G19KT 10SM SCT048 31/24 A2995 RMK AO2 SLP131 T03060239


Station Type Date Time Source
KMKC Decoded METAR 2022/06/25 22:54 UTC NOAA

KANSAS CITY DOWNTOWN AIRPORT , MO, United States (KMKC) 39-07N 094-36W 227M
Jun 25, 2022 - 06:54 PM EDT / 2022.06.25 2254 UTC
Wind: from the NW (310 degrees) at 9 MPH (8 KT) gusting to 22 MPH (19 KT):0
Visibility: 10 mile(s):0
Sky conditions: partly cloudy
Temperature: 87.1 F (30.6 C)
Heat index: 96.4 F (35.8 C):1
Dew Point: 75.0 F (23.9 C)
Relative Humidity: 67%
Pressure (altimeter): 29.95 in. Hg (1014 hPa)
ob: KMKC 252254Z 31008G19KT 10SM SCT048 31/24 A2995 RMK AO2 SLP131 T03060239
cycle: 23

Station Type Date Time Source
KMKC TAF 2022/06/25 18:30 UTC NOAA

TAF KMKC 251728Z 2518/2618 25012G22KT P6SM SCT150
FM252100 31012G22KT P6SM VCSH SCT080
FM260100 35011KT P6SM SCT090

Example: see airport list